createdAt,value
2022-12-27T00:00:09.415Z,89.59
2022-12-27T00:02:40.257Z,89.59
2022-12-27T00:05:10.862Z,89.58
2022-12-27T00:07:37.592Z,89.60
2022-12-27T00:10:06.514Z,89.60
2022-12-27T00:12:33.617Z,89.61
2022-12-27T00:15:00.516Z,89.62
2022-12-27T00:17:27.741Z,89.63
2022-12-27T00:19:54.750Z,89.65
2022-12-27T00:22:21.416Z,89.66
2022-12-27T00:24:57.136Z,89.68
2022-12-27T00:27:24.390Z,89.71
2022-12-27T00:29:51.033Z,89.71
2022-12-27T00:32:18.090Z,89.71
2022-12-27T00:34:44.984Z,89.72
2022-12-27T00:37:11.769Z,89.73
2022-12-27T00:39:38.472Z,89.75
2022-12-27T00:42:05.511Z,89.76
2022-12-27T00:44:32.138Z,89.77
2022-12-27T00:46:58.883Z,89.77
2022-12-27T00:49:25.795Z,89.77
2022-12-27T00:51:52.481Z,89.77
2022-12-27T00:54:19.111Z,89.77
2022-12-27T00:56:46.036Z,89.78
2022-12-27T00:59:13.059Z,89.80
2022-12-27T01:01:40.366Z,89.80
2022-12-27T01:04:07.750Z,89.81
2022-12-27T01:06:35.404Z,89.82
2022-12-27T01:09:03.407Z,89.83
2022-12-27T01:11:30.837Z,89.83
2022-12-27T01:13:59.897Z,89.85
2022-12-27T01:16:28.708Z,89.88
2022-12-27T01:18:55.737Z,89.87
2022-12-27T01:21:24.894Z,89.86
2022-12-27T01:23:52.057Z,89.86
2022-12-27T01:26:21.062Z,89.86
2022-12-27T01:28:48.858Z,89.86
2022-12-27T01:31:19.217Z,89.88
2022-12-27T01:33:46.679Z,89.88
2022-12-27T01:36:19.498Z,89.90
2022-12-27T01:38:50.165Z,89.92
2022-12-27T01:41:39.850Z,89.92
2022-12-27T01:44:37.835Z,89.93
2022-12-27T01:47:42.308Z,89.98
2022-12-27T01:50:27.631Z,89.97
2022-12-27T01:53:16.709Z,89.97
2022-12-27T01:55:52.941Z,89.98
2022-12-27T01:58:30.473Z,90.00
2022-12-27T02:00:59.043Z,90.00
2022-12-27T02:03:39.665Z,90.00
2022-12-27T02:06:09.636Z,90.02
2022-12-27T02:08:56.754Z,90.04
2022-12-27T02:11:53.850Z,90.05
2022-12-27T02:14:39.267Z,90.08
2022-12-27T02:17:22.783Z,90.09
2022-12-27T02:19:55.285Z,90.10
2022-12-27T02:23:19.795Z,90.10
2022-12-27T02:26:07.941Z,90.13
2022-12-27T02:28:49.122Z,90.16
2022-12-27T02:31:23.531Z,90.18
2022-12-27T02:33:52.271Z,90.21
2022-12-27T02:36:27.210Z,90.23
2022-12-27T02:38:59.367Z,90.25
2022-12-27T02:41:45.763Z,90.27
2022-12-27T02:44:37.232Z,90.21
2022-12-27T02:47:32.709Z,90.29
2022-12-27T02:50:17.973Z,90.28
2022-12-27T02:53:10.424Z,90.31
2022-12-27T02:55:40.237Z,90.33
2022-12-27T02:58:31.929Z,90.34
2022-12-27T03:01:46.718Z,90.36
2022-12-27T03:04:32.002Z,90.36
2022-12-27T03:07:15.824Z,90.38
2022-12-27T03:10:22.366Z,90.38
2022-12-27T03:13:23.153Z,90.43
2022-12-27T03:16:09.112Z,90.46
2022-12-27T03:19:37.114Z,90.48
2022-12-27T03:22:22.716Z,90.50
2022-12-27T03:25:08.677Z,90.50
2022-12-27T03:27:37.875Z,90.54
2022-12-27T03:30:27.116Z,90.54
2022-12-27T03:33:13.671Z,90.57
2022-12-27T03:36:06.917Z,90.58
2022-12-27T03:38:43.402Z,90.59
2022-12-27T03:41:35.490Z,90.62
2022-12-27T03:44:22.309Z,90.65
2022-12-27T03:46:53.023Z,90.65
2022-12-27T03:49:38.379Z,90.67
2022-12-27T03:52:11.892Z,90.70
2022-12-27T03:54:44.987Z,90.74
2022-12-27T03:57:15.357Z,90.77
2022-12-27T03:59:41.985Z,90.78
2022-12-27T04:02:08.908Z,90.78
2022-12-27T04:04:37.058Z,90.81
2022-12-27T04:07:05.005Z,90.83
2022-12-27T04:09:51.093Z,90.85
2022-12-27T04:12:37.156Z,90.86
2022-12-27T04:15:23.124Z,90.89
2022-12-27T04:18:08.777Z,90.91
2022-12-27T04:20:54.091Z,90.93
2022-12-27T04:23:40.105Z,90.95
2022-12-27T04:26:25.497Z,90.99
2022-12-27T04:29:11.274Z,91.02
2022-12-27T04:31:57.285Z,91.06
2022-12-27T04:34:39.852Z,91.07
2022-12-27T04:37:06.599Z,91.08
2022-12-27T04:39:33.498Z,91.10
2022-12-27T04:42:19.104Z,91.12
2022-12-27T04:45:04.317Z,91.13
2022-12-27T04:47:50.673Z,91.19
2022-12-27T04:50:51.241Z,91.22
2022-12-27T04:53:39.553Z,91.25
2022-12-27T04:56:07.235Z,91.31
2022-12-27T04:58:34.492Z,91.37
2022-12-27T05:01:22.465Z,91.38
2022-12-27T05:03:51.895Z,91.38
2022-12-27T05:06:19.311Z,91.41
2022-12-27T05:09:04.733Z,91.45
2022-12-27T05:11:50.242Z,91.47
2022-12-27T05:14:17.045Z,91.50
2022-12-27T05:16:44.506Z,91.54
2022-12-27T05:19:13.667Z,91.59
2022-12-27T05:22:06.165Z,91.60
2022-12-27T05:24:51.728Z,91.64
2022-12-27T05:27:18.833Z,91.66
2022-12-27T05:29:46.784Z,91.67
2022-12-27T05:32:13.984Z,91.67
2022-12-27T05:34:41.196Z,91.71
2022-12-27T05:37:08.660Z,91.74
2022-12-27T05:39:35.480Z,91.73
2022-12-27T05:42:03.340Z,91.78
2022-12-27T05:44:30.387Z,91.78
2022-12-27T05:46:57.125Z,91.77
2022-12-27T05:49:23.829Z,91.76
2022-12-27T05:51:50.855Z,91.77
2022-12-27T05:54:17.595Z,91.76
2022-12-27T05:56:44.311Z,91.77
2022-12-27T05:59:11.295Z,91.78
2022-12-27T06:01:38.032Z,91.79
2022-12-27T06:04:06.470Z,91.83
2022-12-27T06:06:34.563Z,91.83
2022-12-27T06:09:01.206Z,91.87
2022-12-27T06:11:28.172Z,91.89
2022-12-27T06:13:54.896Z,91.93
2022-12-27T06:16:22.504Z,91.98
2022-12-27T06:18:49.569Z,92.03
2022-12-27T06:21:19.298Z,92.06
2022-12-27T06:23:46.743Z,92.08
2022-12-27T06:26:23.730Z,92.09
2022-12-27T06:28:51.100Z,92.12
2022-12-27T06:31:19.434Z,92.19
2022-12-27T06:33:47.359Z,92.24
2022-12-27T06:36:16.019Z,92.29
2022-12-27T06:38:43.870Z,92.31
2022-12-27T06:41:17.495Z,92.35
2022-12-27T06:43:45.572Z,92.40
2022-12-27T06:46:17.667Z,92.40
2022-12-27T06:48:46.266Z,92.41
2022-12-27T06:51:14.620Z,92.42
2022-12-27T06:53:41.822Z,92.45
2022-12-27T06:56:11.439Z,92.47
2022-12-27T06:58:38.408Z,92.47
2022-12-27T07:01:13.854Z,92.51
2022-12-27T07:03:41.466Z,92.59
2022-12-27T07:06:11.268Z,92.61
2022-12-27T07:08:38.927Z,92.66
2022-12-27T07:11:08.669Z,92.73
2022-12-27T07:13:37.219Z,92.79
2022-12-27T07:16:05.940Z,92.83
2022-12-27T07:18:33.667Z,92.87
2022-12-27T07:21:07.742Z,92.90
2022-12-27T07:23:34.765Z,92.96
2022-12-27T07:26:09.271Z,92.98
2022-12-27T07:28:37.171Z,93.04
2022-12-27T07:31:15.341Z,93.10
2022-12-27T07:33:43.072Z,93.16
2022-12-27T07:36:13.703Z,93.19
2022-12-27T07:38:40.516Z,93.26
2022-12-27T07:41:07.903Z,93.27
2022-12-27T07:43:35.875Z,93.29
2022-12-27T07:46:09.089Z,93.34
2022-12-27T07:48:36.799Z,93.38
2022-12-27T07:51:04.459Z,93.43
2022-12-27T07:53:31.949Z,93.49
2022-12-27T07:55:59.391Z,93.56
2022-12-27T07:58:26.207Z,93.60
2022-12-27T08:00:53.071Z,93.62
2022-12-27T08:03:20.234Z,93.67
2022-12-27T08:05:54.323Z,93.68
2022-12-27T08:08:24.984Z,93.72
2022-12-27T08:10:51.789Z,93.73
2022-12-27T08:13:18.410Z,93.75
2022-12-27T08:15:45.314Z,93.82
2022-12-27T08:18:12.067Z,93.88
2022-12-27T08:20:38.731Z,93.92
2022-12-27T08:23:05.635Z,93.98
2022-12-27T08:25:32.269Z,94.01
2022-12-27T08:28:06.779Z,94.03
2022-12-27T08:30:34.186Z,94.09
2022-12-27T08:33:02.220Z,94.08
2022-12-27T08:38:16.591Z,94.09
2022-12-27T08:40:44.878Z,94.12
2022-12-27T08:43:12.603Z,94.16
2022-12-27T08:45:39.803Z,94.18
2022-12-27T08:48:07.068Z,94.22
2022-12-27T08:50:34.113Z,94.20
2022-12-27T08:53:02.721Z,94.23
2022-12-27T08:55:30.415Z,94.25
2022-12-27T08:58:02.614Z,94.24
2022-12-27T09:00:30.028Z,94.21
2022-12-27T09:02:57.472Z,94.19
2022-12-27T09:05:25.895Z,94.16
2022-12-27T09:07:53.263Z,94.16
2022-12-27T09:10:21.401Z,94.13
2022-12-27T09:12:48.133Z,94.13
2022-12-27T09:15:15.260Z,94.14
2022-12-27T09:17:42.032Z,94.14
2022-12-27T09:20:09.806Z,94.11
2022-12-27T09:22:36.677Z,94.09
2022-12-27T09:25:03.607Z,94.12
2022-12-27T09:27:30.359Z,94.15
2022-12-27T09:29:57.282Z,94.17
2022-12-27T09:32:27.406Z,94.20
2022-12-27T09:34:54.664Z,94.21
2022-12-27T09:37:21.625Z,94.19
2022-12-27T09:39:48.314Z,94.17
2022-12-27T09:43:07.244Z,94.13
2022-12-27T09:45:35.686Z,94.16
2022-12-27T09:48:07.394Z,94.11
2022-12-27T09:50:38.024Z,94.06
2022-12-27T09:53:22.098Z,94.05
2022-12-27T09:55:55.498Z,94.00
2022-12-27T09:58:34.319Z,93.96
2022-12-27T10:01:02.624Z,93.94
2022-12-27T10:03:30.698Z,93.91
2022-12-27T10:06:23.800Z,93.92
2022-12-27T10:09:19.852Z,93.95
2022-12-27T10:12:15.397Z,93.92
2022-12-27T10:15:14.731Z,93.92
2022-12-27T10:18:05.846Z,93.88
2022-12-27T10:21:10.034Z,93.85
2022-12-27T10:23:42.154Z,93.87
2022-12-27T10:26:15.231Z,93.84
2022-12-27T10:28:47.443Z,93.79
2022-12-27T10:31:18.592Z,93.78
2022-12-27T10:33:47.563Z,93.76
2022-12-27T10:36:18.373Z,93.73
2022-12-27T10:38:45.309Z,93.69
2022-12-27T10:41:50.323Z,93.64
2022-12-27T10:44:17.426Z,93.58
2022-12-27T10:46:51.263Z,93.55
2022-12-27T10:49:39.611Z,93.53
2022-12-27T10:52:23.384Z,93.59
2022-12-27T10:54:55.503Z,93.64
2022-12-27T10:57:28.172Z,93.67
2022-12-27T11:00:17.950Z,93.69
2022-12-27T11:02:56.588Z,93.68
2022-12-27T11:05:30.393Z,93.67
2022-12-27T11:07:57.700Z,93.68
2022-12-27T11:10:33.730Z,93.67
2022-12-27T11:13:07.687Z,93.65
2022-12-27T11:15:40.902Z,93.61
2022-12-27T11:18:17.179Z,93.58
2022-12-27T11:20:49.377Z,93.56
2022-12-27T11:23:19.250Z,93.50
2022-12-27T11:25:56.034Z,93.44
2022-12-27T11:28:40.869Z,93.41
2022-12-27T11:31:09.739Z,93.37
2022-12-27T11:33:41.170Z,93.34
2022-12-27T11:36:13.522Z,93.29
2022-12-27T11:38:42.945Z,93.27
2022-12-27T11:41:13.432Z,93.32
2022-12-27T11:43:49.959Z,93.27
2022-12-27T11:46:45.463Z,93.22
2022-12-27T11:49:21.626Z,93.22
2022-12-27T11:52:10.473Z,93.20
2022-12-27T11:55:14.344Z,93.17
2022-12-27T11:58:01.151Z,93.14
2022-12-27T12:00:40.323Z,93.07
2022-12-27T12:03:45.300Z,93.02
2022-12-27T12:06:38.532Z,93.00
2022-12-27T12:09:29.424Z,92.96
2022-12-27T12:12:24.511Z,92.94
2022-12-27T12:15:21.438Z,92.95
2022-12-27T12:18:26.002Z,92.97
2022-12-27T12:21:08.690Z,92.96
2022-12-27T12:24:09.487Z,92.95
2022-12-27T12:27:10.627Z,92.94
2022-12-27T12:29:52.560Z,92.97
2022-12-27T12:32:28.612Z,92.96
2022-12-27T12:35:14.797Z,92.98
2022-12-27T12:38:03.544Z,92.98
2022-12-27T12:41:12.262Z,93.01
2022-12-27T12:43:47.900Z,93.04
2022-12-27T12:46:20.412Z,93.04
2022-12-27T12:49:08.522Z,93.07
2022-12-27T12:51:54.884Z,93.10
2022-12-27T12:54:46.886Z,93.10
2022-12-27T12:57:28.985Z,93.13
2022-12-27T13:00:08.971Z,93.15
2022-12-27T13:02:57.671Z,93.14
2022-12-27T13:05:46.614Z,93.17
2022-12-27T13:08:22.435Z,93.17
2022-12-27T13:11:34.728Z,93.21
2022-12-27T13:14:22.911Z,93.21
2022-12-27T13:17:00.875Z,93.23
2022-12-27T13:19:55.139Z,93.24
2022-12-27T13:22:46.213Z,93.29
2022-12-27T13:25:46.134Z,93.33
2022-12-27T13:28:40.636Z,93.34
2022-12-27T13:32:04.787Z,93.38
2022-12-27T13:35:03.840Z,93.40
2022-12-27T13:37:30.586Z,93.44
2022-12-27T13:40:43.398Z,93.46
2022-12-27T13:43:37.695Z,93.47
2022-12-27T13:46:07.755Z,93.49
2022-12-27T13:49:02.805Z,93.48
2022-12-27T13:51:46.396Z,93.50
2022-12-27T13:54:48.605Z,93.54
2022-12-27T13:57:40.250Z,93.55
2022-12-27T14:00:17.643Z,93.56
2022-12-27T14:03:17.018Z,93.58
2022-12-27T14:06:19.990Z,93.59
2022-12-27T14:08:49.874Z,93.59
2022-12-27T14:11:32.918Z,93.62
2022-12-27T14:14:02.558Z,93.64
2022-12-27T14:16:59.574Z,93.67
2022-12-27T14:19:58.629Z,93.71
2022-12-27T14:22:34.493Z,93.70
2022-12-27T14:25:13.113Z,93.73
2022-12-27T14:28:06.797Z,93.81
2022-12-27T14:30:46.022Z,93.82
2022-12-27T14:33:33.132Z,93.79
2022-12-27T14:36:21.294Z,93.73
2022-12-27T14:38:53.737Z,93.61
2022-12-27T14:41:51.348Z,93.44
2022-12-27T14:44:17.972Z,93.35
2022-12-27T14:47:19.277Z,93.06
2022-12-27T14:50:15.062Z,92.87
2022-12-27T14:53:04.026Z,92.71
2022-12-27T14:55:42.900Z,92.39
2022-12-27T14:58:28.442Z,92.26
2022-12-27T15:01:43.233Z,92.03
2022-12-27T15:04:31.771Z,92.02
2022-12-27T15:07:16.854Z,91.90
2022-12-27T15:10:07.449Z,91.86
2022-12-27T15:13:15.525Z,91.78
2022-12-27T15:15:42.436Z,91.82
2022-12-27T15:18:19.980Z,91.61
2022-12-27T15:21:15.377Z,91.54
2022-12-27T15:23:42.132Z,91.40
2022-12-27T15:26:15.022Z,91.26
2022-12-27T15:29:08.912Z,91.24
2022-12-27T15:31:47.461Z,91.23
2022-12-27T15:34:32.724Z,91.16
2022-12-27T15:37:00.195Z,91.16
2022-12-27T15:39:33.092Z,90.97
2022-12-27T15:42:36.588Z,90.96
2022-12-27T15:45:24.423Z,90.94
2022-12-27T15:48:22.659Z,90.85
2022-12-27T15:51:15.013Z,90.61
2022-12-27T15:54:06.777Z,90.43
2022-12-27T15:56:42.575Z,90.22
2022-12-27T15:59:31.385Z,89.83
2022-12-27T16:02:19.947Z,89.69
2022-12-27T16:04:53.890Z,89.33
2022-12-27T16:07:36.162Z,88.66
2022-12-27T16:10:30.405Z,88.70
2022-12-27T16:13:19.583Z,88.66
2022-12-27T16:15:50.934Z,88.62
2022-12-27T16:18:23.903Z,88.37
2022-12-27T16:21:06.293Z,88.25
2022-12-27T16:23:48.496Z,88.07
2022-12-27T16:26:15.350Z,87.52
2022-12-27T16:28:51.481Z,87.29
2022-12-27T16:31:23.653Z,87.07
2022-12-27T16:33:52.266Z,86.74
2022-12-27T16:36:23.107Z,86.65
2022-12-27T16:39:14.307Z,86.67
2022-12-27T16:42:00.130Z,86.77
2022-12-27T16:44:38.416Z,86.85
2022-12-27T16:47:28.230Z,86.77
2022-12-27T16:50:16.822Z,86.84
2022-12-27T16:52:47.463Z,86.70
2022-12-27T16:55:26.479Z,86.63
2022-12-27T16:58:31.396Z,86.61
2022-12-27T17:01:00.651Z,86.72
2022-12-27T17:03:36.886Z,86.43
2022-12-27T17:06:32.684Z,86.43
2022-12-27T17:09:09.764Z,86.46
2022-12-27T17:11:59.887Z,86.37
2022-12-27T17:14:31.757Z,86.37
2022-12-27T17:17:02.776Z,86.29
2022-12-27T17:19:39.777Z,86.23
2022-12-27T17:22:12.499Z,86.38
2022-12-27T17:24:39.575Z,86.15
2022-12-27T17:27:50.453Z,86.04
2022-12-27T17:30:46.747Z,86.07
2022-12-27T17:33:27.290Z,86.16
2022-12-27T17:36:13.816Z,85.97
2022-12-27T17:39:09.941Z,85.96
2022-12-27T17:42:10.125Z,85.94
2022-12-27T17:44:42.005Z,85.91
2022-12-27T17:47:27.275Z,85.78
2022-12-27T17:49:54.249Z,86.06
2022-12-27T17:52:48.533Z,85.64
2022-12-27T17:55:38.796Z,85.61
2022-12-27T17:58:09.462Z,85.42
2022-12-27T18:00:55.039Z,85.42
2022-12-27T18:03:23.513Z,85.32
2022-12-27T18:05:50.271Z,85.23
2022-12-27T18:08:24.816Z,85.31
2022-12-27T18:10:51.990Z,85.32
2022-12-27T18:13:23.035Z,85.29
2022-12-27T18:15:50.563Z,85.27
2022-12-27T18:18:35.775Z,85.34
2022-12-27T18:21:04.943Z,85.41
2022-12-27T18:23:42.926Z,85.43
2022-12-27T18:26:13.337Z,85.46
2022-12-27T18:28:41.862Z,85.38
2022-12-27T18:31:20.136Z,85.29
2022-12-27T18:33:51.529Z,85.27
2022-12-27T18:36:23.887Z,85.17
2022-12-27T18:39:26.383Z,85.11
2022-12-27T18:41:54.690Z,85.07
2022-12-27T18:44:31.706Z,84.91
2022-12-27T18:47:02.506Z,85.02
2022-12-27T18:49:35.237Z,84.95
2022-12-27T18:52:10.983Z,85.04
2022-12-27T18:54:38.105Z,84.97
2022-12-27T18:57:07.042Z,84.78
2022-12-27T18:59:36.760Z,84.67
2022-12-27T19:02:34.641Z,84.81
2022-12-27T19:05:19.923Z,84.89
2022-12-27T19:07:47.025Z,84.74
2022-12-27T19:10:19.509Z,84.52
2022-12-27T19:12:47.477Z,84.48
2022-12-27T19:15:50.052Z,84.28
2022-12-27T19:18:33.857Z,84.40
2022-12-27T19:21:03.114Z,84.33
2022-12-27T19:23:39.072Z,84.32
2022-12-27T19:26:24.263Z,84.23
2022-12-27T19:29:21.445Z,84.31
2022-12-27T19:31:56.891Z,84.34
2022-12-27T19:34:26.844Z,84.23
2022-12-27T19:36:55.301Z,84.14
2022-12-27T19:39:27.493Z,83.97
2022-12-27T19:42:01.133Z,83.91
2022-12-27T19:44:29.192Z,83.95
2022-12-27T19:46:56.169Z,83.93
2022-12-27T19:49:41.781Z,83.71
2022-12-27T19:52:18.170Z,83.61
2022-12-27T19:54:46.158Z,83.58
2022-12-27T19:57:13.796Z,83.64
2022-12-27T19:59:40.724Z,83.57
2022-12-27T20:02:11.727Z,83.55
2022-12-27T20:04:39.112Z,83.56
2022-12-27T20:07:06.041Z,83.47
2022-12-27T20:09:32.800Z,83.52
2022-12-27T20:12:00.063Z,83.45
2022-12-27T20:14:26.737Z,83.43
2022-12-27T20:16:53.479Z,83.37
2022-12-27T20:19:20.580Z,83.34
2022-12-27T20:21:47.459Z,83.24
2022-12-27T20:24:14.368Z,83.27
2022-12-27T20:26:42.591Z,83.27
2022-12-27T20:29:10.190Z,83.27
2022-12-27T20:31:44.178Z,83.27
2022-12-27T20:34:13.039Z,83.27
2022-12-27T20:36:39.756Z,83.22
2022-12-27T20:39:07.440Z,83.23
2022-12-27T20:41:34.705Z,83.26
2022-12-27T20:44:01.696Z,83.21
2022-12-27T20:46:28.548Z,83.19
2022-12-27T20:48:56.493Z,83.15
2022-12-27T20:51:27.440Z,83.03
2022-12-27T20:53:57.616Z,83.07
2022-12-27T20:56:25.917Z,82.94
2022-12-27T20:58:54.600Z,82.97
2022-12-27T21:01:24.972Z,82.90
2022-12-27T21:03:55.830Z,82.83
2022-12-27T21:06:25.416Z,82.77
2022-12-27T21:08:56.764Z,82.93
2022-12-27T21:11:33.649Z,82.87
2022-12-27T21:14:02.949Z,82.93
2022-12-27T21:16:32.574Z,82.96
2022-12-27T21:19:03.436Z,83.02
2022-12-27T21:21:32.067Z,82.94
2022-12-27T21:23:59.223Z,82.96
2022-12-27T21:26:35.847Z,82.99
2022-12-27T21:29:06.002Z,82.92
2022-12-27T21:31:34.326Z,82.90
2022-12-27T21:34:01.277Z,82.93
2022-12-27T21:36:30.808Z,82.83
2022-12-27T21:38:57.597Z,82.89
2022-12-27T21:41:26.405Z,82.83
2022-12-27T21:43:53.830Z,82.78
2022-12-27T21:46:23.548Z,82.84
2022-12-27T21:48:55.707Z,82.69
2022-12-27T21:51:23.135Z,82.74
2022-12-27T21:53:50.561Z,82.73
2022-12-27T21:56:17.883Z,82.62
2022-12-27T21:58:46.478Z,82.58
2022-12-27T22:01:21.997Z,82.50
2022-12-27T22:03:52.803Z,82.59
2022-12-27T22:06:31.500Z,82.70
2022-12-27T22:09:01.138Z,82.70
2022-12-27T22:11:29.163Z,82.62
2022-12-27T22:13:56.192Z,82.59
2022-12-27T22:16:26.348Z,82.57
2022-12-27T22:18:56.353Z,82.58
2022-12-27T22:21:28.087Z,82.55
2022-12-27T22:23:59.713Z,82.53
2022-12-27T22:26:34.836Z,82.50
2022-12-27T22:29:02.036Z,82.56
2022-12-27T22:31:33.717Z,82.59
2022-12-27T22:34:01.325Z,82.57
2022-12-27T22:36:28.386Z,82.60
2022-12-27T22:38:57.431Z,82.53
2022-12-27T22:41:26.102Z,82.54
2022-12-27T22:43:55.701Z,82.48
2022-12-27T22:46:23.102Z,82.52
2022-12-27T22:48:54.672Z,82.50
2022-12-27T22:51:27.745Z,82.52
2022-12-27T22:53:56.651Z,82.50
2022-12-27T22:56:25.881Z,82.46
2022-12-27T22:58:52.587Z,82.49
2022-12-27T23:01:22.373Z,82.29
2022-12-27T23:03:49.481Z,82.29
2022-12-27T23:06:20.099Z,82.36
2022-12-27T23:08:47.828Z,82.36
2022-12-27T23:11:18.287Z,82.41
2022-12-27T23:13:45.845Z,82.39
2022-12-27T23:16:12.950Z,82.37
2022-12-27T23:18:39.653Z,82.42
2022-12-27T23:21:20.047Z,82.42
2022-12-27T23:23:52.038Z,82.43
2022-12-27T23:26:22.193Z,82.40
2022-12-27T23:28:51.487Z,82.30
2022-12-27T23:31:20.636Z,82.29
2022-12-27T23:33:47.720Z,82.37
2022-12-27T23:36:15.171Z,82.30
2022-12-27T23:38:43.307Z,82.27
2022-12-27T23:41:15.636Z,82.21
2022-12-27T23:43:58.524Z,82.30
2022-12-27T23:46:28.263Z,82.24
2022-12-27T23:48:57.162Z,82.13
2022-12-27T23:51:24.655Z,82.13
2022-12-27T23:53:51.959Z,82.09
2022-12-27T23:56:20.755Z,82.09
2022-12-27T23:58:48.575Z,82.03
